Time;durP1;ratioP1;P1;durP2;ratioP2;P2;SDS_P1;SDS_P2;PMS_P1;PMS_P2;Temp;Humidity;BMP_temperature;BMP_pressure;BME280_temperature;BME280_humidity;BME280_pressure;Samples;Min_cycle;Max_cycle;Signal;HPM_P1;HPM_P2
2022/07/15 00:01:03;;;;;;;2.75;2.00;;;;;;;20.86;43.68;99396.94;5241419;28;20411;-71
2022/07/15 00:03:53;;;;;;;5.45;1.60;;;;;;;20.71;43.83;99409.72;5226210;28;20040;-71
2022/07/15 00:06:43;;;;;;;2.97;1.80;;;;;;;20.58;44.43;99405.94;5238254;28;20060;-72
2022/07/15 00:12:48;;;;;;;4.35;2.00;;;;;;;20.57;44.84;99406.97;5237959;28;20045;-72
2022/07/15 00:15:38;;;;;;;3.90;1.83;;;;;;;20.33;44.83;99407.38;5238172;28;20568;-72
2022/07/15 00:18:28;;;;;;;4.25;1.88;;;;;;;20.35;46.00;99408.03;5240567;28;20121;-72
2022/07/15 00:21:18;;;;;;;5.20;2.25;;;;;;;20.42;45.15;99400.81;5237549;28;20051;-72
2022/07/15 00:24:08;;;;;;;9.10;2.33;;;;;;;20.22;45.54;99398.00;5242983;28;20461;-72
2022/07/15 00:26:58;;;;;;;3.97;2.40;;;;;;;20.05;46.36;99402.84;5241131;28;20041;-72
2022/07/15 00:29:48;;;;;;;5.10;2.45;;;;;;;19.98;45.77;99404.66;5227052;28;20044;-72
2022/07/15 00:32:39;;;;;;;2.15;1.70;;;;;;;19.82;46.95;99402.22;5242711;28;20094;-72
2022/07/15 00:35:30;;;;;;;5.47;2.80;;;;;;;19.87;46.61;99403.31;5237696;28;20106;-72
2022/07/15 00:38:21;;;;;;;6.68;2.63;;;;;;;19.69;47.81;99401.06;5243934;28;20157;-72
2022/07/15 00:41:11;;;;;;;5.88;2.30;;;;;;;19.54;48.02;99402.16;5235227;28;20078;-72
2022/07/15 00:44:03;;;;;;;2.85;1.92;;;;;;;19.28;49.19;99398.16;5223788;28;20075;-72
2022/07/15 00:46:54;;;;;;;4.47;2.40;;;;;;;19.12;49.33;99404.59;5238588;28;20067;-72
2022/07/15 00:49:44;;;;;;;6.70;2.40;;;;;;;19.00;49.49;99404.22;5232121;28;20052;-72
2022/07/15 00:52:38;;;;;;;4.65;2.20;;;;;;;19.15;49.28;99409.59;5238518;28;20490;-72
2022/07/15 00:55:37;;;;;;;6.78;2.55;;;;;;;19.03;48.51;99389.59;5237533;28;20055;-72
2022/07/15 00:58:29;;;;;;;4.20;2.15;;;;;;;18.98;49.56;99402.78;5222684;28;20552;-71
2022/07/15 01:01:20;;;;;;;5.35;2.45;;;;;;;18.94;49.48;99404.16;5228448;28;20044;-72
2022/07/15 01:04:12;;;;;;;4.88;2.33;;;;;;;18.88;49.54;99396.88;5218517;28;20503;-72
2022/07/15 01:07:02;;;;;;;5.22;2.38;;;;;;;18.76;49.11;99373.16;5234948;28;20053;-72
2022/07/15 01:09:53;;;;;;;5.80;2.55;;;;;;;18.91;49.12;99399.19;5221924;28;20060;-72
2022/07/15 01:12:46;;;;;;;5.43;2.28;;;;;;;18.89;49.30;99398.53;5238718;28;20513;-72
2022/07/15 01:15:37;;;;;;;5.25;2.10;;;;;;;18.92;48.52;99400.84;5225418;28;20040;-72
2022/07/15 01:18:29;;;;;;;8.30;2.30;;;;;;;19.01;48.40;99407.78;5239036;28;20048;-72
2022/07/15 01:21:19;;;;;;;3.55;2.08;;;;;;;18.94;48.87;99406.84;5225431;28;20067;-72
2022/07/15 01:24:13;;;;;;;4.20;2.30;;;;;;;18.65;49.64;99415.75;5224639;28;20707;-72
2022/07/15 01:27:15;;;;;;;4.47;2.00;;;;;;;18.46;49.58;99401.00;5225876;28;20051;-72
2022/07/15 01:30:05;;;;;;;6.40;2.47;;;;;;;18.49;49.19;99396.09;5221677;28;20053;-72
2022/07/15 01:32:56;;;;;;;5.57;2.00;;;;;;;18.19;50.00;99397.09;5226104;28;20059;-72
2022/07/15 01:35:46;;;;;;;8.88;2.25;;;;;;;18.06;50.21;99398.56;5235934;28;20411;-72
2022/07/15 01:38:36;;;;;;;4.53;2.22;;;;;;;18.09;49.95;99397.38;5235931;28;20422;-72
2022/07/15 01:41:39;;;;;;;8.18;2.38;;;;;;;18.17;50.36;99402.63;5227436;28;20640;-72
2022/07/15 01:44:35;;;;;;;3.95;1.80;;;;;;;18.08;50.93;99411.81;5223458;28;20048;-72
2022/07/15 01:47:27;;;;;;;5.70;2.30;;;;;;;17.90;51.91;99408.59;5241886;28;20067;-72
2022/07/15 01:50:20;;;;;;;3.10;2.03;;;;;;;17.75;51.12;99406.69;5226266;28;20446;-72
2022/07/15 01:53:17;;;;;;;8.05;2.65;;;;;;;17.86;51.35;99418.03;5212934;28;20193;-72
2022/07/15 01:56:07;;;;;;;8.25;3.20;;;;;;;17.83;51.43;99413.84;5224505;28;20174;-72
2022/07/15 01:58:58;;;;;;;6.68;3.15;;;;;;;17.65;52.49;99414.16;5219450;28;20091;-72
2022/07/15 02:01:49;;;;;;;6.65;2.28;;;;;;;17.79;51.57;99412.56;5235509;28;20645;-72
2022/07/15 02:04:41;;;;;;;4.45;2.28;;;;;;;17.60;52.35;99392.38;5224365;28;20052;-73
2022/07/15 02:07:31;;;;;;;5.32;2.50;;;;;;;17.59;51.63;99412.16;5228058;28;20055;-72
2022/07/15 02:10:22;;;;;;;7.45;2.40;;;;;;;17.22;52.53;99403.03;5225626;28;20067;-73
2022/07/15 02:13:13;;;;;;;3.10;2.33;;;;;;;17.34;52.75;99412.31;5225156;28;20154;-72
2022/07/15 02:16:07;;;;;;;5.35;2.63;;;;;;;17.03;52.97;99396.25;5220042;28;20049;-72
2022/07/15 02:18:58;;;;;;;3.25;2.25;;;;;;;17.33;53.18;99412.50;5221719;28;20057;-72
2022/07/15 02:21:49;;;;;;;5.07;2.28;;;;;;;17.29;52.33;99412.03;5226400;28;20141;-72
2022/07/15 02:24:39;;;;;;;9.57;2.33;;;;;;;16.87;53.69;99404.38;5238867;28;20045;-72
2022/07/15 02:27:30;;;;;;;3.75;2.22;;;;;;;16.53;55.09;99418.88;5226882;28;20072;-73
2022/07/15 02:30:21;;;;;;;4.47;2.50;;;;;;;16.69;54.57;99417.97;5235579;28;20056;-72
2022/07/15 02:33:13;;;;;;;3.28;2.35;;;;;;;16.82;54.22;99410.25;5238397;28;20075;-72
2022/07/15 02:36:04;;;;;;;5.38;2.38;;;;;;;16.78;54.19;99397.38;5220006;28;20064;-72
2022/07/15 02:38:55;;;;;;;5.30;2.28;;;;;;;16.94;53.71;99420.59;5219188;28;20056;-73
2022/07/15 02:41:47;;;;;;;5.35;2.60;;;;;;;16.74;54.16;99402.22;5232646;28;20126;-72
2022/07/15 02:44:38;;;;;;;4.32;2.70;;;;;;;16.61;54.85;99416.16;5234661;28;20052;-73
2022/07/15 02:47:28;;;;;;;5.97;2.70;;;;;;;16.67;54.19;99409.28;5226406;28;20055;-73
2022/07/15 02:50:21;;;;;;;4.43;2.50;;;;;;;16.48;54.76;99417.69;5218527;28;20165;-73
2022/07/15 02:53:11;;;;;;;4.78;2.90;;;;;;;16.51;54.84;99428.91;5234691;28;20071;-73
2022/07/15 02:56:03;;;;;;;7.65;2.83;;;;;;;16.77;54.65;99446.59;5224450;28;20059;-73
2022/07/15 02:58:53;;;;;;;3.88;2.75;;;;;;;16.68;54.30;99438.53;5227340;28;20459;-73
2022/07/15 03:01:44;;;;;;;4.35;2.63;;;;;;;16.42;55.35;99428.09;5235832;28;20186;-72
2022/07/15 03:04:37;;;;;;;7.00;3.05;;;;;;;16.51;55.97;99439.59;5219674;28;20537;-73
2022/07/15 03:07:29;;;;;;;8.00;2.65;;;;;;;16.03;56.23;99433.34;5219499;28;20052;-73
2022/07/15 03:10:20;;;;;;;6.75;3.08;;;;;;;16.35;56.20;99440.47;5239592;28;20059;-73
2022/07/15 03:13:11;;;;;;;5.85;2.90;;;;;;;16.43;55.89;99437.78;5234872;28;20055;-73
2022/07/15 03:16:01;;;;;;;8.02;2.60;;;;;;;16.31;56.20;99435.63;5217743;28;20045;-73
2022/07/15 03:18:51;;;;;;;8.82;3.33;;;;;;;16.04;57.49;99444.88;5227434;28;20064;-73
2022/07/15 03:21:42;;;;;;;8.00;2.97;;;;;;;16.23;56.90;99441.84;5226405;28;20048;-73
2022/07/15 03:24:32;;;;;;;8.10;3.33;;;;;;;16.27;57.34;99437.81;5222049;28;20045;-73
2022/07/15 03:27:23;;;;;;;8.52;3.25;;;;;;;16.44;57.12;99441.28;5237507;28;20127;-73
2022/07/15 03:30:14;;;;;;;6.90;2.80;;;;;;;16.23;57.70;99449.03;5221922;28;20076;-73
2022/07/15 03:33:06;;;;;;;9.45;3.13;;;;;;;15.98;58.33;99428.47;5224583;28;20052;-73
2022/07/15 03:35:56;;;;;;;6.20;3.50;;;;;;;16.28;58.00;99433.28;5219099;28;20502;-73
2022/07/15 03:38:51;;;;;;;17.27;3.60;;;;;;;16.29;58.26;99445.66;5221735;28;20049;-73
2022/07/15 03:41:42;;;;;;;9.38;3.55;;;;;;;16.26;58.23;99456.69;5240423;28;20076;-73
2022/07/15 03:44:34;;;;;;;8.70;3.20;;;;;;;16.13;59.17;99454.56;5221965;28;20515;-73
2022/07/15 03:47:24;;;;;;;6.93;3.55;;;;;;;16.28;58.94;99449.34;5228399;28;20051;-73
2022/07/15 03:50:17;;;;;;;8.02;3.55;;;;;;;16.04;59.34;99456.41;5243303;28;20419;-73
2022/07/15 03:53:07;;;;;;;5.30;3.42;;;;;;;16.27;58.89;99456.53;5239836;28;20193;-73
2022/07/15 03:55:58;;;;;;;11.55;3.72;;;;;;;16.40;58.37;99458.72;5242493;28;20144;-73
2022/07/15 03:58:48;;;;;;;8.43;4.20;;;;;;;16.14;59.68;99458.91;5224881;28;20060;-73
2022/07/15 04:01:39;;;;;;;6.43;3.60;;;;;;;15.90;59.33;99433.84;5223825;28;20052;-73
2022/07/15 04:04:30;;;;;;;6.45;3.70;;;;;;;16.14;59.69;99470.44;5235235;28;20059;-73
2022/07/15 04:07:20;;;;;;;11.57;3.95;;;;;;;16.04;58.91;99436.84;5220307;28;20626;-73
2022/07/15 04:10:11;;;;;;;7.85;3.97;;;;;;;16.03;59.92;99461.94;5225109;28;20125;-74
2022/07/15 04:13:02;;;;;;;10.80;4.10;;;;;;;16.03;60.07;99461.94;5237854;28;20052;-74
2022/07/15 04:15:53;;;;;;;9.05;3.75;;;;;;;16.18;59.82;99431.63;5227775;28;20079;-73
2022/07/15 04:18:43;;;;;;;10.05;4.30;;;;;;;16.30;60.04;99453.53;5228404;28;20044;-73
2022/07/15 04:21:34;;;;;;;13.18;3.53;;;;;;;16.38;60.24;99456.19;5228431;28;20048;-73
2022/07/15 04:24:25;;;;;;;6.68;3.63;;;;;;;16.54;59.51;99459.84;5221655;28;20041;-73
2022/07/15 04:27:16;;;;;;;5.85;3.72;;;;;;;16.42;59.16;99465.56;5228768;28;20673;-73
2022/07/15 04:30:08;;;;;;;9.60;4.00;;;;;;;16.37;59.33;99464.41;5220995;28;20052;-73
2022/07/15 04:33:06;;;;;;;5.72;3.58;;;;;;;16.17;60.62;99448.69;5226170;28;20059;-74
2022/07/15 04:35:59;;;;;;;5.78;3.70;;;;;;;16.32;59.50;99448.00;5220934;28;20456;-73
2022/07/15 04:38:50;;;;;;;8.00;4.10;;;;;;;16.54;58.93;99458.00;5227467;28;20044;-73
2022/07/15 04:41:40;;;;;;;12.00;3.95;;;;;;;16.66;58.10;99450.47;5232702;28;20051;-73
2022/07/15 04:44:31;;;;;;;10.52;4.00;;;;;;;16.51;58.59;99455.66;5223599;28;20051;-74
2022/07/15 04:47:21;;;;;;;10.15;3.80;;;;;;;16.29;58.90;99429.59;5228425;28;20052;-73
2022/07/15 04:53:25;;;;;;;10.50;4.28;;;;;;;16.40;59.94;99464.06;5237186;28;20064;-73
2022/07/15 04:56:16;;;;;;;12.80;5.13;;;;;;;16.61;59.50;99461.66;5225705;28;20086;-73
2022/07/15 04:59:07;;;;;;;13.35;3.97;;;;;;;16.65;59.15;99468.38;5222165;28;20674;-73
2022/07/15 05:01:58;;;;;;;15.07;4.03;;;;;;;16.65;57.83;99459.47;5223621;28;20055;-73
2022/07/15 05:04:58;;;;;;;14.63;5.10;;;;;;;16.77;58.51;99473.38;5222825;28;20056;-74
2022/07/15 05:07:48;;;;;;;11.43;4.50;;;;;;;16.73;58.69;99477.38;5234842;28;20063;-74
2022/07/15 05:10:39;;;;;;;13.65;4.53;;;;;;;16.65;57.91;99457.66;5218161;28;20496;-74
2022/07/15 05:13:29;;;;;;;10.50;4.15;;;;;;;16.66;58.07;99447.78;5225103;28;20048;-75
2022/07/15 05:16:22;;;;;;;12.85;4.82;;;;;;;16.96;59.18;99482.88;5227959;28;20055;-73
2022/07/15 05:19:12;;;;;;;16.55;4.35;;;;;;;17.12;57.11;99474.78;5225712;28;20056;-72
2022/07/15 05:22:03;;;;;;;9.80;4.03;;;;;;;17.17;56.56;99482.28;5223107;28;20136;-72
2022/07/15 05:24:55;;;;;;;14.75;4.85;;;;;;;17.11;57.27;99478.44;5220030;28;20126;-70
2022/07/15 05:27:47;;;;;;;19.10;4.88;;;;;;;17.22;57.85;99464.66;5224485;28;20118;-70
2022/07/15 05:30:38;;;;;;;13.52;4.53;;;;;;;17.30;57.18;99464.63;5232407;28;20055;-70
2022/07/15 05:33:30;;;;;;;9.15;4.28;;;;;;;17.30;56.86;99461.94;5218010;28;20071;-69
2022/07/15 05:36:21;;;;;;;9.75;4.13;;;;;;;17.50;55.74;99485.63;5224920;28;20525;-70
2022/07/15 05:39:12;;;;;;;10.73;4.57;;;;;;;17.51;56.54;99484.59;5222720;28;20099;-71
2022/07/15 05:42:03;;;;;;;12.93;4.28;;;;;;;17.67;55.34;99479.13;5221887;28;20122;-72
2022/07/15 05:44:54;;;;;;;10.38;3.97;;;;;;;17.80;53.81;99471.38;5223687;28;20515;-69
2022/07/15 05:47:50;;;;;;;9.90;4.28;;;;;;;17.79;54.12;99477.75;5222260;28;20045;-71
2022/07/15 05:50:43;;;;;;;7.25;3.90;;;;;;;17.95;54.71;99484.84;5223046;28;20518;-71
2022/07/15 05:53:35;;;;;;;14.82;4.35;;;;;;;18.05;53.89;99489.97;5221552;28;20055;-70
2022/07/15 05:56:29;;;;;;;11.30;4.43;;;;;;;18.16;55.85;99489.53;5209350;28;20075;-71
2022/07/15 05:59:19;;;;;;;5.45;3.45;;;;;;;18.40;52.52;99485.81;5229027;28;20498;-69
2022/07/15 06:02:13;;;;;;;8.52;2.90;;;;;;;18.68;49.89;99486.03;5218423;28;20049;-73
2022/07/15 06:05:05;;;;;;;7.40;2.63;;;;;;;18.69;48.53;99490.38;5226391;28;20055;-72
2022/07/15 06:07:56;;;;;;;8.75;2.60;;;;;;;18.95;48.56;99495.34;5236777;28;20061;-72
2022/07/15 06:10:52;;;;;;;7.57;3.05;;;;;;;19.02;48.62;99506.19;5218092;28;20143;-71
2022/07/15 06:13:44;;;;;;;7.53;2.67;;;;;;;19.08;50.74;99502.75;5232957;28;20130;-71
2022/07/15 06:16:35;;;;;;;4.97;2.08;;;;;;;19.12;49.79;99501.34;5234073;28;20052;-72
2022/07/15 06:19:27;;;;;;;5.15;2.28;;;;;;;19.09;49.40;99472.16;5232154;28;20109;-71
2022/07/15 06:22:17;;;;;;;6.93;2.60;;;;;;;19.28;48.92;99486.88;5218902;28;20154;-71
2022/07/15 06:25:08;;;;;;;10.68;2.63;;;;;;;19.29;48.42;99482.34;5195752;28;20063;-71
2022/07/15 06:27:59;;;;;;;14.07;2.58;;;;;;;19.45;49.01;99493.69;5210251;28;20410;-72
2022/07/15 06:30:50;;;;;;;6.20;2.30;;;;;;;19.74;49.06;99494.69;5214301;28;22002;-72
2022/07/15 06:33:40;;;;;;;11.70;2.65;;;;;;;19.96;50.55;99503.59;5218205;28;20060;-72
2022/07/15 06:36:31;;;;;;;20.77;3.08;;;;;;;20.03;47.95;99492.88;5221544;28;20055;-72
2022/07/15 06:39:21;;;;;;;23.33;3.03;;;;;;;20.15;49.06;99497.56;5216348;28;20102;-72
2022/07/15 06:42:12;;;;;;;30.48;3.63;;;;;;;20.15;47.50;99502.94;5206293;28;20056;-71
2022/07/15 06:45:03;;;;;;;17.73;3.08;;;;;;;20.38;47.85;99496.50;5217173;28;20045;-71
2022/07/15 06:47:54;;;;;;;13.52;2.33;;;;;;;19.90;49.06;99494.44;5203555;28;20664;-72
2022/07/15 06:50:48;;;;;;;19.23;2.55;;;;;;;20.57;44.98;99493.19;5205686;28;20654;-74
2022/07/15 06:53:39;;;;;;;23.92;3.10;;;;;;;20.72;44.84;99486.84;5205498;28;20095;-71
2022/07/15 06:56:30;;;;;;;17.23;3.05;;;;;;;20.86;46.31;99493.97;5204073;28;20107;-73
2022/07/15 06:59:20;;;;;;;14.95;3.08;;;;;;;20.85;45.18;99495.84;5221282;28;20143;-74
2022/07/15 07:02:11;;;;;;;12.90;2.20;;;;;;;21.09;43.40;99499.06;5210042;28;20534;-75
2022/07/15 07:05:04;;;;;;;8.73;2.30;;;;;;;21.55;43.85;99488.50;5209908;28;20150;-74
2022/07/15 07:07:56;;;;;;;10.93;1.60;;;;;;;22.31;41.19;99495.53;5210914;28;20091;-73
2022/07/15 07:10:47;;;;;;;7.97;2.20;;;;;;;23.77;38.10;99488.91;5209721;28;20162;-74
2022/07/15 07:13:37;;;;;;;9.40;2.50;;;;;;;24.88;36.83;99488.25;5221557;28;20052;-71
2022/07/15 07:16:28;;;;;;;11.65;1.90;;;;;;;25.75;34.82;99488.88;5219466;28;20052;-70
2022/07/15 07:19:18;;;;;;;12.05;2.10;;;;;;;26.24;33.03;99486.91;5216744;28;20071;-75
2022/07/15 07:22:08;;;;;;;4.60;1.30;;;;;;;26.62;31.15;99477.53;5214566;28;20058;-74
2022/07/15 07:24:59;;;;;;;7.43;1.40;;;;;;;27.21;32.85;99479.34;5214730;28;20063;-73
2022/07/15 07:27:50;;;;;;;6.07;1.80;;;;;;;27.53;29.78;99471.56;5220981;28;20080;-75
2022/07/15 07:30:40;;;;;;;6.05;1.60;;;;;;;27.69;30.00;99472.69;5222879;28;20111;-75
2022/07/15 07:33:30;;;;;;;4.82;1.55;;;;;;;28.26;29.60;99476.16;5218787;28;20056;-74
2022/07/15 07:36:20;;;;;;;7.38;1.40;;;;;;;28.59;29.58;99479.16;5221709;28;20167;-75
2022/07/15 07:39:12;;;;;;;5.40;1.63;;;;;;;28.38;29.04;99484.28;5212282;28;20048;-72
2022/07/15 07:42:03;;;;;;;5.38;1.50;;;;;;;28.94;27.00;99470.63;5220515;28;20499;-68
2022/07/15 07:44:53;;;;;;;3.92;1.40;;;;;;;28.87;27.22;99476.28;5217644;28;20047;-68
2022/07/15 07:47:43;;;;;;;7.50;2.08;;;;;;;28.85;27.15;99475.72;5217015;28;20141;-67
2022/07/15 07:50:34;;;;;;;5.10;1.38;;;;;;;27.98;28.32;99468.88;5215958;28;20421;-71
2022/07/15 07:53:24;;;;;;;6.63;1.67;;;;;;;29.63;27.68;99470.97;5213898;28;20126;-70
2022/07/15 07:56:14;;;;;;;4.38;1.25;;;;;;;29.79;26.80;99468.41;5217260;28;20060;-72
2022/07/15 07:59:04;;;;;;;5.43;1.42;;;;;;;29.93;24.80;99465.03;5222428;28;20079;-73
2022/07/15 08:01:54;;;;;;;6.40;1.55;;;;;;;29.18;26.32;99461.16;5222838;28;20052;-70
2022/07/15 08:04:45;;;;;;;4.60;1.30;;;;;;;30.60;26.23;99465.56;5218516;28;20076;-75
2022/07/15 08:07:36;;;;;;;5.70;1.33;;;;;;;30.99;24.15;99452.38;5217861;28;20131;-72
2022/07/15 08:10:26;;;;;;;5.68;1.85;;;;;;;30.49;24.18;99461.91;5219745;28;20461;-71
2022/07/15 08:13:18;;;;;;;4.60;1.30;;;;;;;29.96;25.45;99456.28;5212608;28;20127;-70
2022/07/15 08:16:08;;;;;;;7.72;1.27;;;;;;;30.58;25.26;99454.06;5205347;28;20071;-71
2022/07/15 08:18:59;;;;;;;4.25;1.48;;;;;;;31.20;24.32;99455.22;5219756;28;20063;-72
2022/07/15 08:21:50;;;;;;;5.60;1.30;;;;;;;31.09;23.58;99459.81;5222478;28;20103;-72
2022/07/15 08:24:41;;;;;;;3.63;1.30;;;;;;;31.23;23.41;99463.72;5226636;28;20343;-74
2022/07/15 08:27:31;;;;;;;3.80;1.10;;;;;;;31.08;24.02;99458.19;5226834;28;20142;-74
2022/07/15 08:30:22;;;;;;;3.20;1.40;;;;;;;30.57;23.84;99466.91;5229644;28;20522;-75
2022/07/15 08:33:14;;;;;;;4.50;1.35;;;;;;;30.11;24.16;99454.78;5224171;28;20072;-71
2022/07/15 08:36:05;;;;;;;5.38;1.88;;;;;;;31.25;25.87;99445.09;5218524;28;20048;-69
2022/07/15 08:38:55;;;;;;;6.30;1.40;;;;;;;30.54;24.92;99444.72;5223289;28;20051;-73
2022/07/15 08:41:45;;;;;;;3.75;1.20;;;;;;;31.93;23.92;99434.06;5218665;28;20142;-69
2022/07/15 08:44:36;;;;;;;2.80;1.40;;;;;;;32.47;23.92;99452.72;5220350;28;20066;-71
2022/07/15 08:47:31;;;;;;;4.78;1.45;;;;;;;32.53;23.55;99453.53;5217372;28;20053;-74
2022/07/15 08:50:41;;;;;;;4.60;1.50;;;;;;;28.74;26.93;99452.06;5220622;28;20139;-69
2022/07/15 08:53:31;;;;;;;4.53;1.50;;;;;;;29.98;27.42;99464.22;5219383;28;20518;-70
2022/07/15 08:56:22;;;;;;;3.45;1.17;;;;;;;31.81;26.80;99456.22;5213396;28;20052;-71
2022/07/15 08:59:12;;;;;;;2.85;1.15;;;;;;;32.46;23.53;99464.78;5217555;28;20067;-75
2022/07/15 09:02:02;;;;;;;3.33;1.13;;;;;;;32.02;24.31;99459.00;5224984;28;20084;-70
2022/07/15 09:05:18;;;;;;;5.15;1.50;;;;;;;32.77;23.79;99463.91;5222817;28;20499;-69
2022/07/15 09:08:14;;;;;;;2.42;1.42;;;;;;;32.03;22.03;99466.16;5226829;28;20668;-73
2022/07/15 09:11:06;;;;;;;5.95;1.92;;;;;;;31.97;24.25;99459.03;5219477;28;20056;-72
2022/07/15 09:14:00;;;;;;;8.25;1.35;;;;;;;32.06;24.66;99454.63;5217942;28;21202;-69
2022/07/15 09:16:50;;;;;;;3.47;1.40;;;;;;;33.06;24.33;99461.38;5220961;28;20040;-72
2022/07/15 09:20:08;;;;;;;5.00;1.35;;;;;;;33.04;23.41;99464.41;5220209;28;20129;-71
2022/07/15 09:22:59;;;;;;;6.00;1.63;;;;;;;32.39;22.97;99466.97;5216345;28;20059;-70
2022/07/15 09:25:50;;;;;;;3.53;1.27;;;;;;;32.72;22.26;99460.09;5220995;28;20067;-73
2022/07/15 09:28:44;;;;;;;13.68;2.25;;;;;;;32.98;23.52;99460.03;5222569;28;20056;-70
2022/07/15 09:35:04;;;;;;;5.18;1.52;;;;;;;33.96;23.15;99457.59;5224513;28;20072;-74
2022/07/15 09:37:56;;;;;;;2.90;1.30;;;;;;;32.29;23.27;99458.75;5221529;28;20134;-73
2022/07/15 09:40:48;;;;;;;3.83;1.45;;;;;;;30.67;26.09;99458.75;5225606;28;20079;-72
2022/07/15 09:43:43;;;;;;;3.80;1.13;;;;;;;31.23;26.22;99461.00;5228760;28;20059;-74
2022/07/15 09:46:47;;;;;;;4.45;1.55;;;;;;;29.95;25.38;99456.53;5219181;28;20045;-70
2022/07/15 09:49:38;;;;;;;5.00;1.50;;;;;;;30.25;25.43;99453.28;5206420;28;20037;-70
2022/07/15 09:52:46;;;;;;;6.93;1.92;;;;;;;31.36;26.86;99454.22;5217451;28;20064;-72
2022/07/15 09:55:37;;;;;;;5.72;1.77;;;;;;;32.54;24.92;99460.66;5220528;28;20454;-71
2022/07/15 09:58:27;;;;;;;2.25;1.48;;;;;;;31.53;24.87;99462.22;5201008;28;20580;-71
2022/07/15 10:01:18;;;;;;;7.47;1.80;;;;;;;32.12;24.78;99463.66;5217047;28;20556;-69
2022/07/15 10:04:09;;;;;;;5.85;1.60;;;;;;;32.51;23.07;99459.28;5221505;28;20956;-70
2022/07/15 10:07:01;;;;;;;2.67;1.42;;;;;;;31.60;25.80;99460.03;5222348;28;20059;-73
2022/07/15 10:10:11;;;;;;;5.35;1.42;;;;;;;32.28;25.22;99466.16;5223574;28;20059;-69
2022/07/15 10:13:11;;;;;;;3.58;1.42;;;;;;;32.33;23.91;99472.75;5223319;28;20063;-72
2022/07/15 10:16:01;;;;;;;7.05;1.90;;;;;;;32.05;24.48;99458.47;5223236;28;20048;-72
2022/07/15 10:19:12;;;;;;;6.80;1.50;;;;;;;32.75;25.50;99456.78;5223429;28;20048;-73
2022/07/15 10:22:24;;;;;;;6.47;1.80;;;;;;;31.54;24.39;99472.06;5185304;28;20044;-68
2022/07/15 10:25:17;;;;;;;4.57;1.83;;;;;;;31.98;25.81;99464.22;5217448;28;20134;-72
2022/07/15 10:28:15;;;;;;;4.80;1.85;;;;;;;30.71;24.43;99458.25;5219131;28;20059;-72
2022/07/15 10:31:28;;;;;;;5.05;2.00;;;;;;;31.83;25.40;99445.81;5220158;28;20048;-69
2022/07/15 10:34:19;;;;;;;3.67;1.53;;;;;;;31.82;24.11;99446.91;5220425;28;20056;-68
2022/07/15 10:37:12;;;;;;;5.13;1.73;;;;;;;30.48;25.66;99446.59;5216984;28;20052;-71
2022/07/15 10:40:06;;;;;;;2.50;1.60;;;;;;;31.24;25.92;99448.94;5217562;28;20584;-72
2022/07/15 10:42:57;;;;;;;;;;;;;;;30.89;26.51;99442.22;5216546;28;20186;-69
2022/07/15 10:46:16;;;;;;;6.47;1.90;;;;;;;30.64;26.03;99450.25;5218338;28;20024;-72
2022/07/15 10:49:08;;;;;;;4.47;1.90;;;;;;;29.91;25.50;99434.38;5206026;28;20522;-74
2022/07/15 10:52:12;;;;;;;4.63;1.67;;;;;;;29.55;25.94;99435.91;5201304;28;20056;-69
2022/07/15 10:55:05;;;;;;;4.70;2.10;;;;;;;29.01;26.68;99422.19;5217883;28;20056;-71
2022/07/15 10:57:55;;;;;;;5.72;1.92;;;;;;;28.95;27.83;99429.44;5222199;28;20048;-72
2022/07/15 11:00:47;;;;;;;8.05;1.95;;;;;;;29.13;27.90;99430.22;5226377;28;20493;-73
2022/07/15 11:04:09;;;;;;;6.07;1.58;;;;;;;29.93;27.40;99425.91;5224506;28;20048;-73
2022/07/15 11:07:03;;;;;;;4.80;2.00;;;;;;;29.84;28.71;99422.81;5226376;28;20056;-72
2022/07/15 11:10:07;;;;;;;4.50;1.50;;;;;;;28.77;27.54;99410.63;5223564;28;20052;-73
2022/07/15 11:13:00;;;;;;;6.40;1.77;;;;;;;29.48;27.77;99418.91;5224075;28;20055;-74
2022/07/15 11:15:59;;;;;;;4.00;1.50;;;;;;;28.42;27.69;99408.25;5223892;28;20053;-71
2022/07/15 11:18:55;;;;;;;4.80;1.50;;;;;;;29.46;28.25;99402.75;5223861;28;20063;-70
2022/07/15 11:21:48;;;;;;;3.60;1.60;;;;;;;29.64;25.85;99398.06;5221362;28;22115;-70
2022/07/15 11:24:38;;;;;;;19.55;2.40;;;;;;;29.94;27.09;99400.22;5217678;28;20189;-71
2022/07/15 11:27:29;;;;;;;3.15;1.70;;;;;;;30.60;25.63;99397.16;5220756;28;20114;-71
2022/07/15 11:30:19;;;;;;;4.65;1.80;;;;;;;30.07;28.10;99396.22;5220988;28;20051;-70
2022/07/15 11:33:13;;;;;;;4.65;1.63;;;;;;;30.74;27.50;99395.56;5217510;28;20101;-71
2022/07/15 11:36:04;;;;;;;3.05;1.88;;;;;;;30.97;25.74;99390.78;5216264;28;20056;-73
2022/07/15 11:38:54;;;;;;;4.28;1.60;;;;;;;29.78;25.69;99392.97;5206022;28;20059;-73
2022/07/15 11:45:00;;;;;;;6.82;1.75;;;;;;;30.00;27.09;99401.06;5215920;28;20056;-74
2022/07/15 11:47:53;;;;;;;4.45;1.77;;;;;;;29.90;26.91;99391.72;5220757;28;20055;-71
2022/07/15 11:50:52;;;;;;;5.30;1.65;;;;;;;30.41;26.55;99400.31;5227114;28;20083;-71
2022/07/15 11:53:44;;;;;;;3.65;2.00;;;;;;;29.66;25.17;99382.19;5228133;28;20045;-69
2022/07/15 11:56:34;;;;;;;4.00;1.80;;;;;;;28.44;28.07;99387.81;5226343;28;20047;-69
2022/07/15 11:59:25;;;;;;;4.15;1.65;;;;;;;28.72;26.67;99386.03;5219283;28;20068;-68
2022/07/15 12:02:16;;;;;;;10.13;1.83;;;;;;;28.88;28.96;99389.78;5219755;28;20051;-72
2022/07/15 12:05:08;;;;;;;3.13;1.63;;;;;;;28.05;28.97;99387.78;5205304;28;20866;-71
2022/07/15 12:07:58;;;;;;;4.07;1.48;;;;;;;29.32;30.06;99385.13;5221611;28;20060;-73
2022/07/15 12:10:49;;;;;;;3.53;1.48;;;;;;;29.53;26.68;99382.59;5228526;28;20522;-72
2022/07/15 12:14:04;;;;;;;7.72;1.60;;;;;;;29.51;27.53;99382.88;5227047;28;20507;-70
2022/07/15 12:16:54;;;;;;;4.75;1.45;;;;;;;29.05;27.91;99376.91;5225374;28;20052;-71
2022/07/15 12:19:53;;;;;;;2.83;1.58;;;;;;;29.37;28.06;99366.06;5225853;28;20785;-74
2022/07/15 12:23:05;;;;;;;4.10;1.60;;;;;;;29.06;28.87;99361.34;5225761;28;20075;-73
2022/07/15 12:26:07;;;;;;;4.88;1.70;;;;;;;28.89;28.33;99370.41;5220013;22;20037;-69
2022/07/15 12:29:00;;;;;;;4.35;2.00;;;;;;;28.37;28.71;99376.22;5186978;28;20061;-68
2022/07/15 12:32:13;;;;;;;3.20;1.50;;;;;;;28.23;27.89;99378.50;5181926;28;20056;-71
2022/07/15 12:35:05;;;;;;;6.10;1.63;;;;;;;27.69;29.74;99380.06;5198385;28;20056;-71
2022/07/15 12:37:55;;;;;;;3.13;1.55;;;;;;;28.33;28.22;99366.91;5209140;28;20057;-69
2022/07/15 12:40:45;;;;;;;3.38;1.90;;;;;;;29.12;27.42;99365.78;5208587;28;20049;-71
2022/07/15 12:43:46;;;;;;;4.72;2.30;;;;;;;28.79;29.54;99367.56;5211619;28;20049;-69
2022/07/15 12:47:06;;;;;;;8.43;4.88;;;;;;;27.16;29.73;99363.84;5206638;28;20037;-70
2022/07/15 12:49:59;;;;;;;4.75;2.28;;;;;;;27.42;30.98;99358.88;5203365;28;20053;-71
2022/07/15 12:52:50;;;;;;;6.65;2.55;;;;;;;26.73;29.67;99363.50;5207375;28;20052;-71
2022/07/15 12:55:48;;;;;;;5.93;3.75;;;;;;;27.53;29.32;99363.44;5207040;28;20056;-69
2022/07/15 12:58:38;;;;;;;4.50;1.73;;;;;;;27.75;28.08;99359.97;5211655;28;20048;-70
2022/07/15 13:01:29;;;;;;;16.33;10.35;;;;;;;28.25;29.09;99351.81;5204165;28;20122;-71
2022/07/15 13:04:19;;;;;;;8.50;2.58;;;;;;;28.07;28.65;99352.91;5208623;28;20049;-68
2022/07/15 13:07:09;;;;;;;7.00;3.60;;;;;;;28.23;29.29;99358.59;5205582;28;20056;-71
2022/07/15 13:10:00;;;;;;;4.18;2.72;;;;;;;27.63;28.80;99354.63;5207813;28;20128;-71
2022/07/15 13:12:50;;;;;;;7.93;2.90;;;;;;;27.40;29.23;99358.31;5200767;28;20130;-72
2022/07/15 13:15:42;;;;;;;8.93;4.13;;;;;;;27.92;29.50;99354.59;5209515;28;20144;-69
2022/07/15 13:18:33;;;;;;;4.55;2.00;;;;;;;28.55;29.31;99358.81;5205396;28;20049;-69
2022/07/15 13:21:24;;;;;;;7.57;3.10;;;;;;;28.30;28.37;99338.22;5205290;28;20058;-71
2022/07/15 13:24:14;;;;;;;6.38;2.15;;;;;;;28.07;29.48;99347.44;5205097;28;20041;-71
2022/07/15 13:27:04;;;;;;;6.70;2.40;;;;;;;28.06;28.81;99356.69;5206626;28;20041;-71
2022/07/15 13:29:55;;;;;;;4.97;3.20;;;;;;;28.61;28.12;99357.78;5201225;28;20099;-70
2022/07/15 13:32:46;;;;;;;4.75;2.90;;;;;;;28.25;28.58;99337.34;5208830;28;20103;-70
2022/07/15 13:35:37;;;;;;;8.15;3.40;;;;;;;28.28;27.47;99345.88;5203534;28;20103;-69
2022/07/15 13:38:27;;;;;;;7.93;2.00;;;;;;;28.64;27.36;99342.78;5205540;28;20060;-69
2022/07/15 13:41:17;;;;;;;7.60;2.58;;;;;;;28.33;28.80;99343.19;5207495;28;20076;-70
2022/07/15 13:44:07;;;;;;;3.15;1.75;;;;;;;28.06;29.29;99340.34;5203650;28;20060;-70